Česky Dansk Deutsch English Español Suomi Français Magyar Italiano Nederlands norsk Polski Português svenska Türkçe

 

Het Weer

Bourges (Frankrijk)

16:00, 31 december 2012 (GMT)

NWNNE
WE
SWSSE
Home            
Bourges Avord Chateauroux Nevers Romorantin Montlucon / Gueret Orleans Auxerre Vichy Tours Chateaudun Saint-Yan Clermont-Ferrand Limoges Poitiers Chartres Melun Paris-Orly Chatillon-Sur-Seine Troyes Le Mans Villacoublay Paris Met Center

Om een weerknop op uw website of weblog te plaatsen, copieer onderstaande code en plak die in uw pagina. In het eerste vakje staat HTML-code, in het tweede vakje UBB-code.


Add to Google

Details

Wind speed:4 bf, 13 kn, 6.7 m/s, 15.0 miles/h, 24.1 km/h
Wind direction:SSW, 200°
Visibility:Greater than 10000 m, 10 km, 32800 ft, 6.2 miles
Clouds:CAVOC
Temperature:9°C, 48°F
Dew-point:5°C, 41°F
Atmospheric pressure:1014 hPa, 760.6 mmHg, 29.94 inHg, 1.001 atm
Relative humidity:76.0 %
METAR:LFLD 311600Z 20013KT CAVOK 09/05 Q1014

Snelkoppelingen

Actuele weersinformatie van de hele wereld. Voeg locaties toe met het plus (+) symbool. Deze snelkoppelingen kunnen worden toegevoegd aan Google.

Lid van de Technetium groep

website free tracking
StatCounter NetStat W3C Validator

29-06-2022 12:28:43
astro.technetium.be money.technetium.be phote.technetium.be tafeltennistafel.technetium.be www.ligfiets.net